Uega, Russia
Current Conditions -  °F | °C
As of 1:00 AM on Sunday 21 Dec 2014 (Local Time) from UHMM Reporting Station
Clear Clear  
Wind Chill: -36°   Ceiling: Unl
Heat Index: -36°   Visibility: 6mi
Dew Point: -44°   Wind: 0mph
Humidity: 67%   Direction: NA
Pressure: 29.88"   Gusts: NA
Location:  60.73°N, 142.75°E
Report Text: UHMM 201500Z 00000MPS 9999 SKC M38/M42 Q1012 RMK QFE744
Loading
Personal Weather Stations






























Interactive Weather Map New forecast layout! Learn more

10-Day Weather Forecast

Advertisements
Track Severe Weather on mobile